Time,TemperatureF,DewpointF,PressureIn,WindDirection,WindDirectionDegrees,WindSpeedMPH,WindSpeedGustMPH,Humidity,HourlyPrecipIn,Conditions,Clouds,dailyrainin,SoftwareType,DateUTC
2014-04-08 00:03:00,44.4,40.3,22.32,NE,45,4.0,4.0,85,0.00,,,0.09,meteohub,2014-04-08 05:03:00,
2014-04-08 00:08:00,44.4,40.3,22.31,NE,45,2.0,7.0,85,0.00,,,0.09,meteohub,2014-04-08 05:08:00,
2014-04-08 00:13:00,44.4,40.3,22.31,SE,135,4.0,7.0,85,0.00,,,0.09,meteohub,2014-04-08 05:13:00,
2014-04-08 00:18:00,44.4,40.3,22.31,East,90,3.0,7.0,85,0.00,,,0.09,meteohub,2014-04-08 05:18:00,
2014-04-08 00:23:00,44.4,39.9,22.31,North,0,4.0,7.0,84,0.00,,,0.09,meteohub,2014-04-08 05:23:00,
2014-04-08 00:28:00,44.2,39.7,22.31,NE,45,3.0,7.0,84,0.00,,,0.09,meteohub,2014-04-08 05:28:00,
2014-04-08 00:33:00,44.1,39.6,22.31,NE,45,3.0,6.0,84,0.00,,,0.09,meteohub,2014-04-08 05:33:00,
2014-04-08 00:38:00,44.1,39.6,22.31,NE,45,6.0,6.0,84,0.00,,,0.09,meteohub,2014-04-08 05:38:00,
2014-04-08 00:43:00,43.9,39.0,22.30,ENE,68,4.0,9.0,83,0.00,,,0.09,meteohub,2014-04-08 05:43:00,
2014-04-08 00:48:00,43.7,38.8,22.30,ENE,68,5.0,9.0,83,0.00,,,0.09,meteohub,2014-04-08 05:48:00,
2014-04-08 00:53:00,43.5,38.5,22.31,ENE,68,5.0,10.0,82,0.00,,,0.09,meteohub,2014-04-08 05:53:00,
2014-04-08 00:58:00,43.2,38.1,22.30,North,0,3.0,10.0,82,0.00,,,0.09,meteohub,2014-04-08 05:58:00,
2014-04-08 01:03:00,43.2,38.1,22.30,NE,45,7.0,10.0,82,0.00,,,0.09,meteohub,2014-04-08 06:03:00,
2014-04-08 01:08:00,43.0,37.9,22.30,NE,45,5.0,7.0,82,0.00,,,0.09,meteohub,2014-04-08 06:08:00,
2014-04-08 01:13:00,43.0,37.6,22.30,NE,45,8.0,8.0,81,0.00,,,0.09,meteohub,2014-04-08 06:13:00,
2014-04-08 01:18:00,42.8,37.4,22.30,NE,45,7.0,10.0,81,0.00,,,0.09,meteohub,2014-04-08 06:18:00,
2014-04-08 01:23:00,42.8,37.4,22.30,East,90,4.0,12.0,81,0.00,,,0.09,meteohub,2014-04-08 06:23:00,
2014-04-08 01:28:00,42.4,37.4,22.30,East,90,4.0,12.0,82,0.00,,,0.09,meteohub,2014-04-08 06:28:00,
2014-04-08 01:33:00,42.1,37.0,22.30,East,90,10.0,10.0,82,0.00,,,0.09,meteohub,2014-04-08 06:33:00,
2014-04-08 01:38:00,41.9,36.9,22.30,East,90,3.0,11.0,82,0.00,,,0.09,meteohub,2014-04-08 06:38:00,
2014-04-08 01:43:00,41.7,36.7,22.30,NE,45,6.0,11.0,82,0.00,,,0.09,meteohub,2014-04-08 06:43:00,
2014-04-08 01:48:00,41.5,36.5,22.30,NE,45,8.0,11.0,82,0.00,,,0.09,meteohub,2014-04-08 06:48:00,
2014-04-08 01:53:00,41.2,36.1,22.30,East,90,5.0,9.0,82,0.00,,,0.09,meteohub,2014-04-08 06:53:00,
2014-04-08 01:58:00,41.0,36.0,22.30,East,90,6.0,9.0,82,0.00,,,0.09,meteohub,2014-04-08 06:58:00,
2014-04-08 02:03:00,41.0,36.0,22.30,NE,45,3.0,10.0,82,0.00,,,0.09,meteohub,2014-04-08 07:03:00,
2014-04-08 02:08:00,40.8,36.3,22.30,East,90,6.0,10.0,84,0.00,,,0.09,meteohub,2014-04-08 07:08:00,
2014-04-08 02:13:00,40.6,36.0,22.30,East,90,7.0,10.0,83,0.00,,,0.09,meteohub,2014-04-08 07:13:00,
2014-04-08 02:18:00,40.5,35.8,22.30,East,90,4.0,10.0,83,0.00,,,0.09,meteohub,2014-04-08 07:18:00,
2014-04-08 02:23:00,40.3,35.6,22.30,East,90,5.0,10.0,83,0.00,,,0.09,meteohub,2014-04-08 07:23:00,
2014-04-08 02:28:00,40.1,35.6,22.30,NE,45,8.0,9.0,84,0.00,,,0.09,meteohub,2014-04-08 07:28:00,
2014-04-08 02:33:00,40.1,35.6,22.30,NE,45,5.0,9.0,84,0.00,,,0.09,meteohub,2014-04-08 07:33:00,
2014-04-08 02:38:00,39.9,35.4,22.30,East,90,5.0,11.0,84,0.00,,,0.09,meteohub,2014-04-08 07:38:00,
2014-04-08 02:43:00,39.7,35.2,22.30,NE,45,7.0,11.0,84,0.00,,,0.09,meteohub,2014-04-08 07:43:00,
2014-04-08 02:48:00,39.7,35.2,22.30,NE,45,4.0,11.0,84,0.00,,,0.09,meteohub,2014-04-08 07:48:00,
2014-04-08 02:53:00,39.9,35.4,22.29,NE,45,7.0,9.0,84,0.00,,,0.09,meteohub,2014-04-08 07:53:00,
2014-04-08 02:58:00,39.9,35.4,22.29,East,90,6.0,9.0,84,0.00,,,0.09,meteohub,2014-04-08 07:58:00,
2014-04-08 03:03:00,39.9,35.4,22.29,NE,45,3.0,7.0,84,0.00,,,0.09,meteohub,2014-04-08 08:03:00,
2014-04-08 03:08:00,40.1,35.6,22.30,NE,45,4.0,7.0,84,0.00,,,0.09,meteohub,2014-04-08 08:08:00,
2014-04-08 03:13:00,40.1,35.6,22.30,East,90,4.0,7.0,84,0.00,,,0.09,meteohub,2014-04-08 08:13:00,
2014-04-08 03:18:00,40.1,35.6,22.29,NE,45,7.0,10.0,84,0.00,,,0.09,meteohub,2014-04-08 08:18:00,
2014-04-08 03:23:00,40.1,35.6,22.29,NE,45,4.0,10.0,84,0.00,,,0.09,meteohub,2014-04-08 08:23:00,
2014-04-08 03:28:00,40.3,35.8,22.29,East,90,4.0,10.0,84,0.00,,,0.09,meteohub,2014-04-08 08:28:00,
2014-04-08 03:33:00,40.3,35.8,22.29,ENE,68,7.0,8.0,84,0.00,,,0.09,meteohub,2014-04-08 08:33:00,
2014-04-08 03:38:00,40.3,35.8,22.29,NE,45,6.0,8.0,84,0.00,,,0.09,meteohub,2014-04-08 08:38:00,
2014-04-08 03:43:00,40.5,36.0,22.29,ENE,68,4.0,8.0,84,0.00,,,0.09,meteohub,2014-04-08 08:43:00,
2014-04-08 03:48:00,40.6,36.1,22.29,NE,45,2.0,8.0,84,0.00,,,0.09,meteohub,2014-04-08 08:48:00,
2014-04-08 03:53:00,40.6,36.1,22.29,East,90,5.0,7.0,84,0.00,,,0.09,meteohub,2014-04-08 08:53:00,
2014-04-08 03:58:00,40.6,36.1,22.29,East,90,6.0,7.0,84,0.00,,,0.09,meteohub,2014-04-08 08:58:00,
2014-04-08 04:03:00,40.8,36.3,22.29,NW,315,4.0,7.0,84,0.00,,,0.09,meteohub,2014-04-08 09:03:00,
2014-04-08 04:08:00,40.6,36.1,22.29,SW,225,9.0,9.0,84,0.00,,,0.09,meteohub,2014-04-08 09:08:00,
2014-04-08 04:13:00,40.6,36.1,22.29,North,0,2.0,9.0,84,0.00,,,0.09,meteohub,2014-04-08 09:13:00,
2014-04-08 04:18:00,40.5,36.0,22.29,NE,45,4.0,9.0,84,0.00,,,0.09,meteohub,2014-04-08 09:18:00,
2014-04-08 04:23:00,40.3,35.8,22.29,ENE,68,5.0,9.0,84,0.00,,,0.09,meteohub,2014-04-08 09:23:00,
2014-04-08 04:28:00,40.1,35.6,22.29,NE,45,4.0,9.0,84,0.00,,,0.09,meteohub,2014-04-08 09:28:00,
2014-04-08 04:33:00,39.9,35.4,22.29,NE,45,4.0,9.0,84,0.00,,,0.09,meteohub,2014-04-08 09:33:00,
2014-04-08 04:38:00,39.6,35.1,22.28,East,90,5.0,8.0,84,0.00,,,0.09,meteohub,2014-04-08 09:38:00,
2014-04-08 04:43:00,39.4,35.2,22.28,NE,45,2.0,8.0,85,0.00,,,0.09,meteohub,2014-04-08 09:43:00,
2014-04-08 04:48:00,39.0,35.2,22.29,NE,45,2.0,8.0,86,0.00,,,0.09,meteohub,2014-04-08 09:48:00,
2014-04-08 04:53:00,38.8,35.1,22.28,NE,45,5.0,8.0,86,0.00,,,0.09,meteohub,2014-04-08 09:53:00,
2014-04-08 04:58:00,38.5,34.7,22.28,North,0,7.0,8.0,86,0.00,,,0.09,meteohub,2014-04-08 09:58:00,
2014-04-08 05:03:00,38.5,34.9,22.28,North,0,3.0,7.0,87,0.00,,,0.09,meteohub,2014-04-08 10:03:00,
2014-04-08 05:08:00,37.9,34.3,22.28,East,90,3.0,7.0,87,0.00,,,0.09,meteohub,2014-04-08 10:08:00,
2014-04-08 05:13:00,37.6,34.3,22.28,East,90,7.0,7.0,88,0.00,,,0.09,meteohub,2014-04-08 10:13:00,
2014-04-08 05:18:00,37.6,34.3,22.28,NE,45,4.0,8.0,88,0.00,,,0.09,meteohub,2014-04-08 10:18:00,
2014-04-08 05:23:00,37.4,34.2,22.27,East,90,3.0,8.0,88,0.00,,,0.09,meteohub,2014-04-08 10:23:00,
2014-04-08 05:28:00,37.2,33.1,22.27,NE,45,2.0,7.0,85,0.00,,,0.09,meteohub,2014-04-08 10:28:00,
2014-04-08 05:33:00,37.0,32.9,22.27,North,0,3.0,7.0,85,0.00,,,0.09,meteohub,2014-04-08 10:33:00,
2014-04-08 05:38:00,37.0,32.9,22.27,NE,45,3.0,7.0,85,0.00,,,0.09,meteohub,2014-04-08 10:38:00,
2014-04-08 05:43:00,36.9,33.1,22.27,North,0,5.0,7.0,86,0.00,,,0.09,meteohub,2014-04-08 10:43:00,
2014-04-08 05:48:00,36.9,33.1,22.26,East,90,5.0,8.0,86,0.00,,,0.09,meteohub,2014-04-08 10:48:00,
2014-04-08 05:53:00,36.9,33.1,22.26,East,90,4.0,8.0,86,0.00,,,0.09,meteohub,2014-04-08 10:53:00,
2014-04-08 05:58:00,36.9,33.1,22.26,NE,45,3.0,8.0,86,0.00,,,0.09,meteohub,2014-04-08 10:58:00,
2014-04-08 06:03:00,36.9,33.1,22.26,NE,45,4.0,6.0,86,0.00,,,0.09,meteohub,2014-04-08 11:03:00,
2014-04-08 06:08:00,36.9,33.1,22.26,East,90,4.0,6.0,86,0.00,,,0.09,meteohub,2014-04-08 11:08:00,
2014-04-08 06:13:00,36.7,32.9,22.26,North,0,2.0,6.0,86,0.00,,,0.09,meteohub,2014-04-08 11:13:00,
2014-04-08 06:18:00,36.5,32.7,22.26,East,90,2.0,6.0,86,0.00,,,0.09,meteohub,2014-04-08 11:18:00,
2014-04-08 06:23:00,36.5,32.7,22.25,East,90,4.0,5.0,86,0.00,,,0.09,meteohub,2014-04-08 11:23:00,
2014-04-08 06:28:00,36.5,33.1,22.25,NE,45,1.0,4.0,87,0.00,,,0.09,meteohub,2014-04-08 11:28:00,
2014-04-08 06:33:00,36.5,33.1,22.25,NE,45,3.0,5.0,87,0.00,,,0.09,meteohub,2014-04-08 11:33:00,
2014-04-08 06:38:00,36.7,33.3,22.25,NE,45,3.0,5.0,87,0.00,,,0.09,meteohub,2014-04-08 11:38:00,
2014-04-08 06:43:00,36.7,33.3,22.25,NE,45,2.0,5.0,87,0.00,,,0.09,meteohub,2014-04-08 11:43:00,
2014-04-08 06:48:00,36.5,33.3,22.24,NE,45,2.0,5.0,88,0.00,,,0.09,meteohub,2014-04-08 11:48:00,
2014-04-08 06:53:00,36.7,33.4,22.24,North,0,3.0,4.0,88,0.00,,,0.09,meteohub,2014-04-08 11:53:00,
2014-04-08 06:58:00,36.7,33.4,22.24,North,0,0.0,4.0,88,0.00,,,0.09,meteohub,2014-04-08 11:58:00,
2014-04-08 07:03:00,36.9,33.6,22.24,NE,45,0.0,4.0,88,0.00,,,0.09,meteohub,2014-04-08 12:03:00,
2014-04-08 07:08:00,36.9,33.6,22.23,WSW,248,0.0,4.0,88,0.00,,,0.09,meteohub,2014-04-08 12:08:00,
2014-04-08 07:13:00,36.9,33.6,22.24,North,0,2.0,4.0,88,0.00,,,0.09,meteohub,2014-04-08 12:13:00,
2014-04-08 07:18:00,37.0,33.8,22.23,West,270,2.0,4.0,88,0.00,,,0.09,meteohub,2014-04-08 12:18:00,
2014-04-08 07:23:00,36.9,33.4,22.24,NW,315,4.0,4.0,87,0.00,,,0.09,meteohub,2014-04-08 12:23:00,
2014-04-08 07:28:00,37.0,33.6,22.23,NW,315,0.0,4.0,87,0.00,,,0.09,meteohub,2014-04-08 12:28:00,
2014-04-08 07:33:00,37.2,33.8,22.23,NW,315,2.0,4.0,87,0.00,,,0.09,meteohub,2014-04-08 12:33:00,
2014-04-08 07:38:00,37.4,35.1,22.23,NW,315,2.0,4.0,91,0.00,,,0.09,meteohub,2014-04-08 12:38:00,
2014-04-08 07:43:00,37.9,35.6,22.23,NW,315,2.0,4.0,91,0.00,,,0.09,meteohub,2014-04-08 12:43:00,
2014-04-08 07:48:00,38.5,36.1,22.23,West,270,1.0,4.0,91,0.00,,,0.09,meteohub,2014-04-08 12:48:00,
2014-04-08 07:53:00,39.4,37.0,22.22,WNW,293,2.0,3.0,91,0.00,,,0.09,meteohub,2014-04-08 12:53:00,
2014-04-08 07:58:00,40.6,38.3,22.23,NW,315,2.0,3.0,91,0.00,,,0.09,meteohub,2014-04-08 12:58:00,
2014-04-08 08:03:00,41.5,38.3,22.23,NW,315,0.0,2.0,88,0.00,,,0.09,meteohub,2014-04-08 13:03:00,
2014-04-08 08:08:00,43.2,39.2,22.22,NE,45,2.0,3.0,86,0.00,,,0.09,meteohub,2014-04-08 13:08:00,
2014-04-08 08:13:00,43.5,38.5,22.22,NW,315,3.0,3.0,82,0.00,,,0.09,meteohub,2014-04-08 13:13:00,
2014-04-08 08:18:00,44.2,38.1,22.23,NE,45,2.0,7.0,79,0.00,,,0.09,meteohub,2014-04-08 13:18:00,
2014-04-08 08:23:00,45.5,38.7,22.22,East,90,4.0,7.0,77,0.00,,,0.09,meteohub,2014-04-08 13:23:00,
2014-04-08 08:28:00,45.9,37.8,22.22,NE,45,6.0,7.0,73,0.00,,,0.09,meteohub,2014-04-08 13:28:00,
2014-04-08 08:33:00,45.7,37.2,22.22,North,0,7.0,7.0,72,0.00,,,0.09,meteohub,2014-04-08 13:33:00,
2014-04-08 08:38:00,45.5,36.7,22.22,NE,45,8.0,8.0,71,0.00,,,0.09,meteohub,2014-04-08 13:38:00,
2014-04-08 08:43:00,46.2,37.8,22.22,North,0,7.0,8.0,72,0.00,,,0.09,meteohub,2014-04-08 13:43:00,
2014-04-08 08:48:00,45.9,36.7,22.22,North,0,6.0,8.0,70,0.00,,,0.09,meteohub,2014-04-08 13:48:00,
2014-04-08 08:53:00,45.9,36.7,22.22,East,90,8.0,8.0,70,0.00,,,0.09,meteohub,2014-04-08 13:53:00,
2014-04-08 08:58:00,46.0,37.2,22.22,NE,45,4.0,9.0,71,0.00,,,0.09,meteohub,2014-04-08 13:58:00,
2014-04-08 09:03:00,46.8,37.6,22.22,NE,45,7.0,9.0,70,0.00,,,0.09,meteohub,2014-04-08 14:03:00,
2014-04-08 09:08:00,46.6,37.4,22.21,North,0,6.0,8.0,70,0.00,,,0.09,meteohub,2014-04-08 14:08:00,
2014-04-08 09:13:00,47.1,37.8,22.21,North,0,5.0,8.0,70,0.00,,,0.09,meteohub,2014-04-08 14:13:00,
2014-04-08 09:18:00,47.5,38.1,22.21,North,0,4.0,8.0,70,0.00,,,0.09,meteohub,2014-04-08 14:18:00,
2014-04-08 09:23:00,50.0,38.7,22.21,NE,45,6.0,8.0,65,0.00,,,0.09,meteohub,2014-04-08 14:23:00,
2014-04-08 09:28:00,49.5,37.4,22.21,NE,45,7.0,7.0,63,0.00,,,0.09,meteohub,2014-04-08 14:28:00,
2014-04-08 09:33:00,50.4,38.7,22.21,North,0,5.0,8.0,64,0.00,,,0.09,meteohub,2014-04-08 14:33:00,
2014-04-08 09:38:00,50.7,37.8,22.21,ENE,68,9.0,9.0,61,0.00,,,0.09,meteohub,2014-04-08 14:38:00,
2014-04-08 09:43:00,50.0,37.6,22.21,NE,45,6.0,9.0,62,0.00,,,0.09,meteohub,2014-04-08 14:43:00,
2014-04-08 09:48:00,51.4,39.2,22.21,NE,45,4.0,11.0,63,0.00,,,0.09,meteohub,2014-04-08 14:48:00,
2014-04-08 09:53:00,51.6,38.1,22.20,East,90,8.0,11.0,60,0.00,,,0.09,meteohub,2014-04-08 14:53:00,
2014-04-08 09:58:00,51.6,38.7,22.20,NE,45,6.0,11.0,61,0.00,,,0.09,meteohub,2014-04-08 14:58:00,
2014-04-08 10:03:00,51.6,38.1,22.20,East,90,9.0,10.0,60,0.00,,,0.09,meteohub,2014-04-08 15:03:00,
2014-04-08 10:08:00,52.2,38.3,22.20,NE,45,6.0,10.0,59,0.00,,,0.09,meteohub,2014-04-08 15:08:00,
2014-04-08 10:13:00,52.0,38.1,22.20,North,0,6.0,9.0,59,0.00,,,0.09,meteohub,2014-04-08 15:13:00,
2014-04-08 10:18:00,52.5,38.7,22.20,NE,45,11.0,11.0,59,0.00,,,0.09,meteohub,2014-04-08 15:18:00,
2014-04-08 10:23:00,52.2,38.3,22.20,East,90,7.0,11.0,59,0.00,,,0.09,meteohub,2014-04-08 15:23:00,
2014-04-08 10:28:00,52.3,38.8,22.20,NE,45,8.0,11.0,60,0.00,,,0.09,meteohub,2014-04-08 15:28:00,
2014-04-08 10:33:00,52.7,38.8,22.19,SW,225,6.0,11.0,59,0.00,,,0.09,meteohub,2014-04-08 15:33:00,
2014-04-08 10:38:00,53.4,39.4,22.19,ESE,113,11.0,11.0,59,0.00,,,0.09,meteohub,2014-04-08 15:38:00,
2014-04-08 10:43:00,53.2,39.2,22.20,North,0,8.0,11.0,59,0.00,,,0.09,meteohub,2014-04-08 15:43:00,
2014-04-08 10:48:00,53.8,39.4,22.19,NE,45,8.0,11.0,58,0.00,,,0.09,meteohub,2014-04-08 15:48:00,
2014-04-08 10:53:00,54.3,38.5,22.19,East,90,8.0,11.0,55,0.00,,,0.09,meteohub,2014-04-08 15:53:00,
2014-04-08 10:58:00,53.6,36.9,22.19,NE,45,11.0,12.0,53,0.00,,,0.09,meteohub,2014-04-08 15:58:00,
2014-04-08 11:03:00,53.4,37.2,22.19,NE,45,10.0,14.0,54,0.00,,,0.09,meteohub,2014-04-08 16:03:00,
2014-04-08 11:08:00,55.0,38.3,22.19,NE,45,6.0,14.0,53,0.00,,,0.09,meteohub,2014-04-08 16:08:00,
2014-04-08 11:13:00,54.5,36.7,22.19,NE,45,10.0,14.0,51,0.00,,,0.09,meteohub,2014-04-08 16:13:00,
2014-04-08 11:18:00,54.7,37.9,22.19,NE,45,10.0,12.0,53,0.00,,,0.09,meteohub,2014-04-08 16:18:00,
2014-04-08 11:23:00,55.6,38.3,22.19,NE,45,9.0,14.0,52,0.00,,,0.09,meteohub,2014-04-08 16:23:00,
2014-04-08 11:28:00,55.0,37.8,22.19,NE,45,11.0,14.0,52,0.00,,,0.09,meteohub,2014-04-08 16:28:00,
2014-04-08 11:33:00,55.9,38.5,22.19,East,90,9.0,14.0,52,0.00,,,0.09,meteohub,2014-04-08 16:33:00,
2014-04-08 11:38:00,55.9,38.1,22.19,NE,45,8.0,15.0,51,0.00,,,0.09,meteohub,2014-04-08 16:38:00,
2014-04-08 11:43:00,57.6,37.9,22.19,East,90,6.0,15.0,48,0.00,,,0.09,meteohub,2014-04-08 16:43:00,
2014-04-08 11:48:00,57.4,36.7,22.19,North,0,8.0,15.0,46,0.00,,,0.09,meteohub,2014-04-08 16:48:00,
2014-04-08 11:53:00,57.2,36.7,22.19,North,0,11.0,15.0,46,0.00,,,0.09,meteohub,2014-04-08 16:53:00,
2014-04-08 11:58:00,56.1,36.7,22.19,NE,45,7.0,15.0,48,0.00,,,0.09,meteohub,2014-04-08 16:58:00,
2014-04-08 12:03:00,58.8,37.6,22.19,ENE,68,11.0,15.0,45,0.00,,,0.09,meteohub,2014-04-08 17:03:00,
2014-04-08 12:08:00,57.4,35.1,22.19,NE,45,15.0,15.0,43,0.00,,,0.09,meteohub,2014-04-08 17:08:00,
2014-04-08 12:11:00,55.6,34.5,22.19,NE,45,15.0,15.0,45,0.00,,,0.09,meteohub,2014-04-08 17:11:00,
2014-04-08 12:16:00,54.7,34.3,22.19,East,90,16.0,21.0,46,0.00,,,0.09,meteohub,2014-04-08 17:16:00,
2014-04-08 12:21:00,55.9,34.9,22.19,ENE,68,9.0,21.0,45,0.00,,,0.09,meteohub,2014-04-08 17:21:00,
2014-04-08 12:26:00,58.3,36.5,22.19,East,90,19.0,21.0,44,0.00,,,0.09,meteohub,2014-04-08 17:26:00,
2014-04-08 12:31:00,57.4,33.8,22.19,SE,135,8.0,22.0,41,0.00,,,0.09,meteohub,2014-04-08 17:31:00,
2014-04-08 12:36:00,57.4,33.8,22.19,East,90,19.0,22.0,41,0.00,,,0.09,meteohub,2014-04-08 17:36:00,
2014-04-08 12:41:00,57.9,34.3,22.19,NE,45,11.0,25.0,41,0.01,,,0.11,meteohub,2014-04-08 17:41:00,
2014-04-08 12:46:00,58.6,35.1,22.19,East,90,11.0,25.0,41,0.01,,,0.11,meteohub,2014-04-08 17:46:00,
2014-04-08 12:51:00,59.0,34.2,22.20,NE,45,8.0,22.0,39,0.01,,,0.11,meteohub,2014-04-08 17:51:00,
2014-04-08 12:56:00,59.4,33.1,22.19,ENE,68,15.0,21.0,37,0.01,,,0.11,meteohub,2014-04-08 17:56:00,
2014-04-08 13:01:00,59.4,34.3,22.19,NE,45,13.0,21.0,39,0.01,,,0.11,meteohub,2014-04-08 18:01:00,
2014-04-08 13:06:00,59.0,33.4,22.19,ESE,113,16.0,21.0,38,0.01,,,0.11,meteohub,2014-04-08 18:06:00,
2014-04-08 13:11:00,56.3,34.2,22.19,NE,45,16.0,21.0,43,0.01,,,0.11,meteohub,2014-04-08 18:11:00,
2014-04-08 13:16:00,57.0,35.2,22.19,ESE,113,8.0,17.0,44,0.01,,,0.11,meteohub,2014-04-08 18:16:00,
2014-04-08 13:21:00,56.7,35.1,22.19,ENE,68,14.0,17.0,44,0.01,,,0.11,meteohub,2014-04-08 18:21:00,
2014-04-08 13:26:00,57.0,34.2,22.19,East,90,11.0,17.0,42,0.01,,,0.11,meteohub,2014-04-08 18:26:00,
2014-04-08 13:31:00,56.8,33.4,22.19,SE,135,16.0,16.0,41,0.01,,,0.11,meteohub,2014-04-08 18:31:00,
2014-04-08 13:36:00,58.3,35.2,22.19,East,90,20.0,20.0,42,0.00,,,0.11,meteohub,2014-04-08 18:36:00,
2014-04-08 13:41:00,59.0,30.7,22.19,East,90,15.0,20.0,34,0.00,,,0.11,meteohub,2014-04-08 18:41:00,
2014-04-08 13:46:00,60.1,32.4,22.19,East,90,18.0,20.0,35,0.00,,,0.11,meteohub,2014-04-08 18:46:00,
2014-04-08 13:51:00,60.3,31.1,22.19,East,90,11.0,20.0,33,0.00,,,0.11,meteohub,2014-04-08 18:51:00,
2014-04-08 13:56:00,59.0,30.0,22.19,NE,45,14.0,19.0,33,0.00,,,0.11,meteohub,2014-04-08 18:56:00,
2014-04-08 14:01:00,57.6,30.0,22.18,NE,45,15.0,19.0,35,0.00,,,0.11,meteohub,2014-04-08 19:01:00,
2014-04-08 14:06:00,60.3,33.3,22.18,East,90,8.0,17.0,36,0.00,,,0.11,meteohub,2014-04-08 19:06:00,
2014-04-08 14:11:00,60.1,30.9,22.19,East,90,11.0,17.0,33,0.00,,,0.11,meteohub,2014-04-08 19:11:00,
2014-04-08 14:16:00,57.6,28.6,22.19,ENE,68,21.0,21.0,33,0.00,,,0.11,meteohub,2014-04-08 19:16:00,
2014-04-08 14:21:00,59.0,30.0,22.19,East,90,11.0,21.0,33,0.00,,,0.11,meteohub,2014-04-08 19:21:00,
2014-04-08 14:26:00,59.0,30.0,22.19,East,90,21.0,21.0,33,0.00,,,0.11,meteohub,2014-04-08 19:26:00,
2014-04-08 14:31:00,59.5,31.1,22.19,NE,45,16.0,21.0,34,0.00,,,0.11,meteohub,2014-04-08 19:31:00,
2014-04-08 14:36:00,60.8,30.7,22.19,East,90,13.0,21.0,32,0.00,,,0.11,meteohub,2014-04-08 19:36:00,
2014-04-08 14:41:00,61.5,30.6,22.19,SE,135,13.0,21.0,31,0.00,,,0.11,meteohub,2014-04-08 19:41:00,
2014-04-08 14:46:00,58.3,29.3,22.18,NE,45,11.0,17.0,33,0.00,,,0.11,meteohub,2014-04-08 19:46:00,
2014-04-08 14:51:00,56.8,30.9,22.18,East,90,10.0,17.0,37,0.00,,,0.11,meteohub,2014-04-08 19:51:00,
2014-04-08 14:56:00,59.5,33.3,22.18,ESE,113,11.0,17.0,37,0.00,,,0.11,meteohub,2014-04-08 19:56:00,
2014-04-08 15:01:00,61.7,32.4,22.18,East,90,11.0,16.0,33,0.00,,,0.11,meteohub,2014-04-08 20:01:00,
2014-04-08 15:06:00,61.7,29.1,22.18,East,90,9.0,15.0,29,0.00,,,0.11,meteohub,2014-04-08 20:06:00,
2014-04-08 15:11:00,61.3,28.8,22.17,North,0,10.0,17.0,29,0.00,,,0.11,meteohub,2014-04-08 20:11:00,
2014-04-08 15:16:00,61.7,30.0,22.17,NE,45,18.0,18.0,30,0.00,,,0.11,meteohub,2014-04-08 20:16:00,
2014-04-08 15:21:00,59.4,26.2,22.18,ENE,68,19.0,19.0,28,0.00,,,0.11,meteohub,2014-04-08 20:21:00,
2014-04-08 15:26:00,57.2,26.8,22.18,NE,45,8.0,22.0,31,0.00,,,0.11,meteohub,2014-04-08 20:26:00,
2014-04-08 15:31:00,57.7,28.8,22.17,East,90,15.0,22.0,33,0.00,,,0.11,meteohub,2014-04-08 20:31:00,
2014-04-08 15:36:00,58.1,29.1,22.17,East,90,7.0,19.0,33,0.00,,,0.11,meteohub,2014-04-08 20:36:00,
2014-04-08 15:41:00,56.3,28.9,22.17,ENE,68,7.0,15.0,35,0.00,,,0.11,meteohub,2014-04-08 20:41:00,
2014-04-08 15:46:00,57.7,29.5,22.18,NE,45,8.0,15.0,34,0.00,,,0.11,meteohub,2014-04-08 20:46:00,
2014-04-08 15:51:00,60.8,30.0,22.17,East,90,11.0,15.0,31,0.00,,,0.11,meteohub,2014-04-08 20:51:00,
2014-04-08 15:56:00,59.5,27.3,22.17,SE,135,17.0,17.0,29,0.00,,,0.11,meteohub,2014-04-08 20:56:00,
2014-04-08 16:01:00,59.9,28.4,22.17,NE,45,17.0,18.0,30,0.00,,,0.11,meteohub,2014-04-08 21:01:00,
2014-04-08 16:06:00,60.6,27.3,22.17,NE,45,14.0,21.0,28,0.00,,,0.11,meteohub,2014-04-08 21:06:00,
2014-04-08 16:11:00,61.5,25.3,22.17,East,90,13.0,21.0,25,0.00,,,0.11,meteohub,2014-04-08 21:11:00,
2014-04-08 16:16:00,61.9,24.6,22.17,East,90,11.0,20.0,24,0.00,,,0.11,meteohub,2014-04-08 21:16:00,
2014-04-08 16:21:00,60.3,22.3,22.17,East,90,15.0,21.0,23,0.00,,,0.11,meteohub,2014-04-08 21:21:00,
2014-04-08 16:26:00,57.7,22.1,22.17,East,90,13.0,21.0,25,0.00,,,0.11,meteohub,2014-04-08 21:26:00,
2014-04-08 16:31:00,58.3,22.6,22.17,East,90,11.0,21.0,25,0.00,,,0.11,meteohub,2014-04-08 21:31:00,
2014-04-08 16:36:00,59.5,22.6,22.16,NE,45,11.0,18.0,24,0.00,,,0.11,meteohub,2014-04-08 21:36:00,
2014-04-08 16:41:00,61.0,22.8,22.16,ENE,68,11.0,18.0,23,0.00,,,0.11,meteohub,2014-04-08 21:41:00,
2014-04-08 16:46:00,61.2,23.0,22.17,East,90,12.0,17.0,23,0.00,,,0.11,meteohub,2014-04-08 21:46:00,
2014-04-08 16:51:00,60.8,22.8,22.16,NE,45,12.0,16.0,23,0.00,,,0.11,meteohub,2014-04-08 21:51:00,
2014-04-08 16:56:00,58.6,24.8,22.16,ENE,68,15.0,17.0,27,0.00,,,0.11,meteohub,2014-04-08 21:56:00,
2014-04-08 17:01:00,59.2,25.2,22.16,ENE,68,22.0,22.0,27,0.00,,,0.11,meteohub,2014-04-08 22:01:00,
2014-04-08 17:06:00,58.6,24.8,22.15,NE,45,15.0,22.0,27,0.00,,,0.11,meteohub,2014-04-08 22:06:00,
2014-04-08 17:11:00,57.7,23.9,22.15,NE,45,17.0,22.0,27,0.00,,,0.11,meteohub,2014-04-08 22:11:00,
2014-04-08 17:16:00,57.7,23.9,22.15,East,90,18.0,22.0,27,0.00,,,0.11,meteohub,2014-04-08 22:16:00,
2014-04-08 17:21:00,59.4,24.4,22.14,East,90,12.0,21.0,26,0.00,,,0.11,meteohub,2014-04-08 22:21:00,
2014-04-08 17:26:00,59.5,23.7,22.15,East,90,13.0,21.0,25,0.00,,,0.11,meteohub,2014-04-08 22:26:00,
2014-04-08 17:31:00,59.5,23.7,22.15,ENE,68,21.0,21.0,25,0.00,,,0.11,meteohub,2014-04-08 22:31:00,
2014-04-08 17:36:00,59.5,23.7,22.14,ENE,68,21.0,21.0,25,0.00,,,0.11,meteohub,2014-04-08 22:36:00,
2014-04-08 17:41:00,59.2,23.4,22.14,East,90,9.0,21.0,25,0.00,,,0.11,meteohub,2014-04-08 22:41:00,
2014-04-08 17:46:00,59.2,23.4,22.14,NE,45,17.0,21.0,25,0.00,,,0.11,meteohub,2014-04-08 22:46:00,
2014-04-08 17:51:00,59.2,23.4,22.14,East,90,11.0,21.0,25,0.00,,,0.11,meteohub,2014-04-08 22:51:00,
2014-04-08 17:56:00,59.0,23.2,22.14,NE,45,12.0,17.0,25,0.00,,,0.11,meteohub,2014-04-08 22:56:00,
2014-04-08 18:01:00,58.8,24.1,22.14,NE,45,5.0,17.0,26,0.00,,,0.11,meteohub,2014-04-08 23:01:00,
2014-04-08 18:06:00,58.8,24.1,22.14,NE,45,10.0,15.0,26,0.00,,,0.11,meteohub,2014-04-08 23:06:00,
2014-04-08 18:11:00,58.8,24.1,22.14,East,90,7.0,16.0,26,0.00,,,0.11,meteohub,2014-04-08 23:11:00,
2014-04-08 18:16:00,58.8,24.1,22.13,ENE,68,8.0,16.0,26,0.00,,,0.11,meteohub,2014-04-08 23:16:00,
2014-04-08 18:21:00,58.5,23.7,22.13,NE,45,11.0,16.0,26,0.00,,,0.11,meteohub,2014-04-08 23:21:00,
2014-04-08 18:26:00,57.7,23.0,22.13,NE,45,6.0,15.0,26,0.00,,,0.11,meteohub,2014-04-08 23:26:00,
2014-04-08 18:31:00,57.4,22.8,22.13,NE,45,10.0,15.0,26,0.00,,,0.11,meteohub,2014-04-08 23:31:00,
2014-04-08 18:36:00,56.5,23.7,22.13,East,90,10.0,16.0,28,0.00,,,0.11,meteohub,2014-04-08 23:36:00,
2014-04-08 18:41:00,55.8,23.9,22.12,NE,45,6.0,16.0,29,0.00,,,0.11,meteohub,2014-04-08 23:41:00,
2014-04-08 18:46:00,55.0,24.1,22.13,NE,45,8.0,16.0,30,0.00,,,0.11,meteohub,2014-04-08 23:46:00,
2014-04-08 18:51:00,54.5,25.2,22.12,NE,45,12.0,15.0,32,0.00,,,0.11,meteohub,2014-04-08 23:51:00,
2014-04-08 18:56:00,53.6,25.9,22.12,ENE,68,10.0,15.0,34,0.00,,,0.11,meteohub,2014-04-08 23:56:00,
2014-04-08 19:01:00,53.2,27.7,22.12,NE,45,10.0,15.0,37,0.00,,,0.11,meteohub,2014-04-09 00:01:00,
2014-04-08 19:06:00,53.2,27.7,22.11,NE,45,10.0,15.0,37,0.00,,,0.00,meteohub,2014-04-09 00:06:00,
2014-04-08 19:11:00,52.2,27.9,22.11,NE,45,15.0,15.0,39,0.00,,,0.00,meteohub,2014-04-09 00:11:00,
2014-04-08 19:16:00,52.0,27.9,22.11,NE,45,5.0,15.0,39,0.00,,,0.00,meteohub,2014-04-09 00:16:00,
2014-04-08 19:21:00,51.6,28.0,22.11,NE,45,6.0,15.0,40,0.00,,,0.00,meteohub,2014-04-09 00:21:00,
2014-04-08 19:26:00,51.1,27.7,22.10,NE,45,8.0,15.0,40,0.00,,,0.00,meteohub,2014-04-09 00:26:00,
2014-04-08 19:31:00,50.9,27.5,22.10,SE,135,5.0,11.0,40,0.00,,,0.00,meteohub,2014-04-09 00:31:00,
2014-04-08 19:36:00,50.7,27.9,22.10,East,90,4.0,11.0,41,0.00,,,0.00,meteohub,2014-04-09 00:36:00,
2014-04-08 19:41:00,50.4,27.5,22.10,ENE,68,6.0,10.0,41,0.00,,,0.00,meteohub,2014-04-09 00:41:00,
2014-04-08 19:46:00,50.2,27.3,22.10,NE,45,6.0,8.0,41,0.00,,,0.00,meteohub,2014-04-09 00:46:00,
2014-04-08 19:51:00,50.0,27.1,22.10,East,90,4.0,9.0,41,0.00,,,0.00,meteohub,2014-04-09 00:51:00,
2014-04-08 19:56:00,49.6,27.5,22.09,East,90,3.0,9.0,42,0.00,,,0.00,meteohub,2014-04-09 00:56:00,
2014-04-08 20:01:00,49.5,27.3,22.09,East,90,4.0,7.0,42,0.00,,,0.00,meteohub,2014-04-09 01:01:00,
2014-04-08 20:06:00,49.1,27.5,22.09,East,90,4.0,7.0,43,0.00,,,0.00,meteohub,2014-04-09 01:06:00,
2014-04-08 20:11:00,48.9,27.3,22.09,East,90,3.0,7.0,43,0.00,,,0.00,meteohub,2014-04-09 01:11:00,
2014-04-08 20:16:00,48.7,27.3,22.08,East,90,3.0,6.0,43,0.00,,,0.00,meteohub,2014-04-09 01:16:00,
2014-04-08 20:21:00,48.4,27.0,22.08,East,90,2.0,5.0,43,0.00,,,0.00,meteohub,2014-04-09 01:21:00,
2014-04-08 20:26:00,48.0,27.1,22.08,East,90,3.0,4.0,44,0.00,,,0.00,meteohub,2014-04-09 01:26:00,
2014-04-08 20:31:00,47.8,27.0,22.07,NE,45,3.0,3.0,44,0.00,,,0.00,meteohub,2014-04-09 01:31:00,
2014-04-08 20:36:00,47.5,26.6,22.07,East,90,2.0,3.0,44,0.00,,,0.00,meteohub,2014-04-09 01:36:00,
2014-04-08 20:41:00,46.8,26.6,22.08,NE,45,1.0,3.0,45,0.00,,,0.00,meteohub,2014-04-09 01:41:00,
2014-04-08 20:46:00,46.0,26.4,22.07,NE,45,0.0,3.0,46,0.00,,,0.00,meteohub,2014-04-09 01:46:00,
2014-04-08 20:51:00,45.5,27.0,22.07,NE,45,0.0,2.0,48,0.00,,,0.00,meteohub,2014-04-09 01:51:00,
2014-04-08 20:56:00,44.8,26.2,22.07,North,0,1.0,2.0,48,0.00,,,0.00,meteohub,2014-04-09 01:56:00,
2014-04-08 21:01:00,44.6,27.1,22.06,NW,315,2.0,2.0,50,0.00,,,0.00,meteohub,2014-04-09 02:01:00,
2014-04-08 21:06:00,44.6,27.1,22.06,NW,315,2.0,2.0,50,0.00,,,0.00,meteohub,2014-04-09 02:06:00,
2014-04-08 21:11:00,43.9,27.9,22.06,North,0,1.0,2.0,53,0.00,,,0.00,meteohub,2014-04-09 02:11:00,
2014-04-08 21:16:00,43.5,27.5,22.06,NW,315,1.0,2.0,53,0.00,,,0.00,meteohub,2014-04-09 02:16:00,
2014-04-08 21:21:00,43.0,27.9,22.06,NW,315,0.0,2.0,55,0.00,,,0.00,meteohub,2014-04-09 02:21:00,
2014-04-08 21:26:00,42.4,28.8,22.06,NW,315,0.0,2.0,58,0.00,,,0.00,meteohub,2014-04-09 02:26:00,
2014-04-08 21:31:00,42.1,28.8,22.06,NW,315,0.0,1.0,59,0.00,,,0.00,meteohub,2014-04-09 02:31:00,
2014-04-08 21:36:00,41.9,28.9,22.06,NW,315,0.0,0.0,60,0.00,,,0.00,meteohub,2014-04-09 02:36:00,
2014-04-08 21:41:00,41.7,28.9,22.06,NE,45,2.0,2.0,60,0.00,,,0.00,meteohub,2014-04-09 02:41:00,
2014-04-08 21:46:00,41.7,29.3,22.06,North,0,1.0,3.0,61,0.00,,,0.00,meteohub,2014-04-09 02:46:00,
2014-04-08 21:51:00,41.9,28.9,22.06,NE,45,2.0,4.0,60,0.00,,,0.00,meteohub,2014-04-09 02:51:00,
2014-04-08 21:56:00,42.4,29.1,22.05,NE,45,3.0,4.0,59,0.00,,,0.00,meteohub,2014-04-09 02:56:00,
2014-04-08 22:01:00,43.2,28.0,22.05,NE,45,2.0,4.0,55,0.00,,,0.00,meteohub,2014-04-09 03:01:00,
2014-04-08 22:06:00,43.2,27.1,22.05,NE,45,2.0,4.0,53,0.00,,,0.00,meteohub,2014-04-09 03:06:00,
2014-04-08 22:11:00,43.0,27.0,22.05,North,0,2.0,4.0,53,0.00,,,0.00,meteohub,2014-04-09 03:11:00,
2014-04-08 22:16:00,42.8,26.8,22.05,NE,45,4.0,4.0,53,0.00,,,0.00,meteohub,2014-04-09 03:16:00,
2014-04-08 22:21:00,42.8,26.8,22.05,NE,45,4.0,4.0,53,0.00,,,0.00,meteohub,2014-04-09 03:21:00,
2014-04-08 22:26:00,43.0,27.0,22.05,East,90,3.0,5.0,53,0.00,,,0.00,meteohub,2014-04-09 03:26:00,
2014-04-08 22:31:00,43.2,27.1,22.05,NE,45,5.0,5.0,53,0.00,,,0.00,meteohub,2014-04-09 03:31:00,
2014-04-08 22:36:00,43.2,27.1,22.05,NE,45,2.0,5.0,53,0.00,,,0.00,meteohub,2014-04-09 03:36:00,
2014-04-08 22:41:00,42.8,26.8,22.05,NW,315,0.0,5.0,53,0.00,,,0.00,meteohub,2014-04-09 03:41:00,
2014-04-08 22:46:00,42.1,26.6,22.05,NE,45,1.0,5.0,54,0.00,,,0.00,meteohub,2014-04-09 03:46:00,
2014-04-08 22:51:00,41.9,27.0,22.05,NE,45,2.0,3.0,55,0.00,,,0.00,meteohub,2014-04-09 03:51:00,
2014-04-08 22:56:00,41.5,27.0,22.05,NE,45,2.0,3.0,56,0.00,,,0.00,meteohub,2014-04-09 03:56:00,
2014-04-08 23:01:00,41.5,27.5,22.04,East,90,2.0,3.0,57,0.00,,,0.00,meteohub,2014-04-09 04:01:00,
2014-04-08 23:02:00,41.5,27.5,22.05,East,90,2.0,3.0,57,0.00,,,0.00,meteohub,2014-04-09 04:02:00,
2014-04-08 23:03:00,41.5,27.5,22.04,East,90,2.0,3.0,57,0.00,,,0.00,meteohub,2014-04-09 04:03:00,
2014-04-08 23:08:00,41.4,27.3,22.04,NW,315,1.0,4.0,57,0.00,,,0.00,meteohub,2014-04-09 04:08:00,
2014-04-08 23:13:00,41.0,27.0,22.04,NE,45,2.0,4.0,57,0.00,,,0.00,meteohub,2014-04-09 04:13:00,
2014-04-08 23:17:00,40.8,27.1,22.04,NW,315,0.0,2.0,58,0.00,,,0.00,meteohub,2014-04-09 04:17:00,
2014-04-08 23:22:00,40.3,26.6,22.04,North,0,1.0,2.0,58,0.00,,,0.00,meteohub,2014-04-09 04:22:00,
2014-04-08 23:27:00,40.1,27.3,22.04,NW,315,2.0,2.0,60,0.00,,,0.00,meteohub,2014-04-09 04:27:00,
2014-04-08 23:32:00,40.1,27.7,22.04,NW,315,0.0,3.0,61,0.00,,,0.00,meteohub,2014-04-09 04:32:00,
2014-04-08 23:37:00,39.7,27.3,22.04,West,270,0.0,3.0,61,0.00,,,0.00,meteohub,2014-04-09 04:37:00,
2014-04-08 23:42:00,39.7,27.3,22.04,NW,315,2.0,3.0,61,0.00,,,0.00,meteohub,2014-04-09 04:42:00,
2014-04-08 23:47:00,39.6,27.1,22.04,North,0,0.0,2.0,61,0.00,,,0.00,meteohub,2014-04-09 04:47:00,
2014-04-08 23:52:00,39.4,27.5,22.04,NW,315,2.0,2.0,62,0.00,,,0.00,meteohub,2014-04-09 04:52:00,
2014-04-08 23:57:00,39.2,27.3,22.04,North,0,2.0,3.0,62,0.00,,,0.00,meteohub,2014-04-09 04:57:00,